sensor_id;sensor_type;location;lat;lon;timestamp;temperature;humidity
1996;DHT22;38556;47.068;15.408;2022-08-21T00:00:23;22.40;95.90
1996;DHT22;38556;47.068;15.408;2022-08-21T00:02:54;22.30;96.30
1996;DHT22;38556;47.068;15.408;2022-08-21T00:05:23;22.10;97.20
1996;DHT22;38556;47.068;15.408;2022-08-21T00:07:50;22.30;96.70
1996;DHT22;38556;47.068;15.408;2022-08-21T00:10:18;22.50;96.00
1996;DHT22;38556;47.068;15.408;2022-08-21T00:12:46;22.50;96.60
1996;DHT22;38556;47.068;15.408;2022-08-21T00:15:15;22.30;96.10
1996;DHT22;38556;47.068;15.408;2022-08-21T00:17:43;22.30;96.50
1996;DHT22;38556;47.068;15.408;2022-08-21T00:20:12;22.20;96.20
1996;DHT22;38556;47.068;15.408;2022-08-21T00:22:41;22.30;96.20
1996;DHT22;38556;47.068;15.408;2022-08-21T00:25:09;22.20;96.60
1996;DHT22;38556;47.068;15.408;2022-08-21T00:27:37;22.30;96.70
1996;DHT22;38556;47.068;15.408;2022-08-21T00:30:06;22.30;95.90
1996;DHT22;38556;47.068;15.408;2022-08-21T00:32:35;22.20;95.90
1996;DHT22;38556;47.068;15.408;2022-08-21T00:35:03;22.20;95.60
1996;DHT22;38556;47.068;15.408;2022-08-21T00:37:32;22.00;94.80
1996;DHT22;38556;47.068;15.408;2022-08-21T00:40:00;22.10;95.10
1996;DHT22;38556;47.068;15.408;2022-08-21T00:42:28;22.00;95.20
1996;DHT22;38556;47.068;15.408;2022-08-21T00:44:56;22.00;94.70
1996;DHT22;38556;47.068;15.408;2022-08-21T00:47:23;22.20;95.40
1996;DHT22;38556;47.068;15.408;2022-08-21T00:49:51;22.30;95.40
1996;DHT22;38556;47.068;15.408;2022-08-21T00:52:22;22.40;95.70
1996;DHT22;38556;47.068;15.408;2022-08-21T00:54:54;22.40;95.80
1996;DHT22;38556;47.068;15.408;2022-08-21T00:57:26;22.40;96.00
1996;DHT22;38556;47.068;15.408;2022-08-21T00:59:57;22.20;96.00
1996;DHT22;38556;47.068;15.408;2022-08-21T01:02:25;22.20;96.00
1996;DHT22;38556;47.068;15.408;2022-08-21T01:04:53;22.20;96.30
1996;DHT22;38556;47.068;15.408;2022-08-21T01:07:20;22.40;96.20
1996;DHT22;38556;47.068;15.408;2022-08-21T01:09:48;22.40;96.10
1996;DHT22;38556;47.068;15.408;2022-08-21T01:12:16;22.40;95.50
1996;DHT22;38556;47.068;15.408;2022-08-21T01:14:45;22.30;95.70
1996;DHT22;38556;47.068;15.408;2022-08-21T01:17:14;22.20;95.90
1996;DHT22;38556;47.068;15.408;2022-08-21T01:19:43;22.20;96.20
1996;DHT22;38556;47.068;15.408;2022-08-21T01:22:11;22.30;96.30
1996;DHT22;38556;47.068;15.408;2022-08-21T01:24:39;22.30;96.30
1996;DHT22;38556;47.068;15.408;2022-08-21T01:27:06;22.30;95.90
1996;DHT22;38556;47.068;15.408;2022-08-21T01:29:38;25.90;97.70
1996;DHT22;38556;47.068;15.408;2022-08-21T01:32:08;22.20;96.10
1996;DHT22;38556;47.068;15.408;2022-08-21T01:34:39;22.00;96.10
1996;DHT22;38556;47.068;15.408;2022-08-21T01:37:06;22.20;96.60
1996;DHT22;38556;47.068;15.408;2022-08-21T01:39:36;22.30;96.30
1996;DHT22;38556;47.068;15.408;2022-08-21T01:42:04;22.40;96.30
1996;DHT22;38556;47.068;15.408;2022-08-21T01:44:32;22.40;96.50
1996;DHT22;38556;47.068;15.408;2022-08-21T01:49:28;22.10;96.20
1996;DHT22;38556;47.068;15.408;2022-08-21T01:51:55;22.10;96.40
1996;DHT22;38556;47.068;15.408;2022-08-21T01:54:22;22.20;96.20
1996;DHT22;38556;47.068;15.408;2022-08-21T01:56:52;22.20;95.30
1996;DHT22;38556;47.068;15.408;2022-08-21T01:59:21;22.20;95.20
1996;DHT22;38556;47.068;15.408;2022-08-21T02:01:49;22.30;95.30
1996;DHT22;38556;47.068;15.408;2022-08-21T02:04:16;22.10;95.30
1996;DHT22;38556;47.068;15.408;2022-08-21T02:06:44;22.00;96.10
1996;DHT22;38556;47.068;15.408;2022-08-21T02:09:12;22.00;95.00
1996;DHT22;38556;47.068;15.408;2022-08-21T02:14:10;21.90;95.00
1996;DHT22;38556;47.068;15.408;2022-08-21T02:16:40;22.00;95.90
1996;DHT22;38556;47.068;15.408;2022-08-21T02:19:07;22.10;95.40
1996;DHT22;38556;47.068;15.408;2022-08-21T02:21:35;22.10;94.10
1996;DHT22;38556;47.068;15.408;2022-08-21T02:24:03;21.90;94.90
1996;DHT22;38556;47.068;15.408;2022-08-21T02:26:30;21.60;96.00
1996;DHT22;38556;47.068;15.408;2022-08-21T02:28:58;21.50;95.60
1996;DHT22;38556;47.068;15.408;2022-08-21T02:31:26;21.50;95.80
1996;DHT22;38556;47.068;15.408;2022-08-21T02:33:54;21.50;96.10
1996;DHT22;38556;47.068;15.408;2022-08-21T02:36:22;21.50;96.10
1996;DHT22;38556;47.068;15.408;2022-08-21T02:38:49;21.60;96.40
1996;DHT22;38556;47.068;15.408;2022-08-21T02:41:19;21.60;96.00
1996;DHT22;38556;47.068;15.408;2022-08-21T02:43:48;21.70;95.50
1996;DHT22;38556;47.068;15.408;2022-08-21T02:46:18;21.80;95.90
1996;DHT22;38556;47.068;15.408;2022-08-21T02:48:47;21.80;95.70
1996;DHT22;38556;47.068;15.408;2022-08-21T02:51:17;21.90;95.00
1996;DHT22;38556;47.068;15.408;2022-08-21T02:53:46;22.00;95.20
1996;DHT22;38556;47.068;15.408;2022-08-21T02:56:16;22.10;94.60
1996;DHT22;38556;47.068;15.408;2022-08-21T02:58:46;22.20;94.20
1996;DHT22;38556;47.068;15.408;2022-08-21T03:01:13;22.20;94.50
1996;DHT22;38556;47.068;15.408;2022-08-21T03:03:44;22.10;95.60
1996;DHT22;38556;47.068;15.408;2022-08-21T03:06:14;22.00;95.00
1996;DHT22;38556;47.068;15.408;2022-08-21T03:08:43;21.90;95.00
1996;DHT22;38556;47.068;15.408;2022-08-21T03:11:11;22.10;95.10
1996;DHT22;38556;47.068;15.408;2022-08-21T03:13:39;22.10;95.30
1996;DHT22;38556;47.068;15.408;2022-08-21T03:16:08;22.20;94.70
1996;DHT22;38556;47.068;15.408;2022-08-21T03:18:35;22.20;94.60
1996;DHT22;38556;47.068;15.408;2022-08-21T03:21:02;21.70;95.00
1996;DHT22;38556;47.068;15.408;2022-08-21T03:23:32;21.80;95.60
1996;DHT22;38556;47.068;15.408;2022-08-21T03:25:59;21.80;95.30
1996;DHT22;38556;47.068;15.408;2022-08-21T03:28:27;21.70;95.60
1996;DHT22;38556;47.068;15.408;2022-08-21T03:30:54;21.50;94.00
1996;DHT22;38556;47.068;15.408;2022-08-21T03:33:22;21.50;95.10
1996;DHT22;38556;47.068;15.408;2022-08-21T03:35:57;21.50;95.10
1996;DHT22;38556;47.068;15.408;2022-08-21T03:38:28;21.40;95.20
1996;DHT22;38556;47.068;15.408;2022-08-21T03:40:57;21.40;95.40
1996;DHT22;38556;47.068;15.408;2022-08-21T03:43:25;21.40;95.30
1996;DHT22;38556;47.068;15.408;2022-08-21T03:45:53;21.60;95.10
1996;DHT22;38556;47.068;15.408;2022-08-21T03:48:21;21.60;94.70
1996;DHT22;38556;47.068;15.408;2022-08-21T03:50:52;21.40;93.90
1996;DHT22;38556;47.068;15.408;2022-08-21T03:53:20;21.40;93.90
1996;DHT22;38556;47.068;15.408;2022-08-21T03:55:49;21.40;94.10
1996;DHT22;38556;47.068;15.408;2022-08-21T03:58:20;21.40;94.30
1996;DHT22;38556;47.068;15.408;2022-08-21T04:00:50;21.50;94.70
1996;DHT22;38556;47.068;15.408;2022-08-21T04:03:18;21.50;95.10
1996;DHT22;38556;47.068;15.408;2022-08-21T04:05:45;21.70;95.10
1996;DHT22;38556;47.068;15.408;2022-08-21T04:08:15;21.80;95.00
1996;DHT22;38556;47.068;15.408;2022-08-21T04:10:43;21.80;95.00
1996;DHT22;38556;47.068;15.408;2022-08-21T04:13:12;21.70;95.40
1996;DHT22;38556;47.068;15.408;2022-08-21T04:15:41;21.60;95.60
1996;DHT22;38556;47.068;15.408;2022-08-21T04:18:09;21.50;95.80
1996;DHT22;38556;47.068;15.408;2022-08-21T04:20:37;21.70;95.40
1996;DHT22;38556;47.068;15.408;2022-08-21T04:23:05;21.70;95.70
1996;DHT22;38556;47.068;15.408;2022-08-21T04:25:32;21.80;95.90
1996;DHT22;38556;47.068;15.408;2022-08-21T04:28:00;21.60;95.90
1996;DHT22;38556;47.068;15.408;2022-08-21T04:30:27;21.80;95.70
1996;DHT22;38556;47.068;15.408;2022-08-21T04:32:56;21.80;96.00
1996;DHT22;38556;47.068;15.408;2022-08-21T04:35:26;21.90;95.90
1996;DHT22;38556;47.068;15.408;2022-08-21T04:37:53;21.90;96.00
1996;DHT22;38556;47.068;15.408;2022-08-21T04:40:21;22.00;95.80
1996;DHT22;38556;47.068;15.408;2022-08-21T04:42:50;22.00;96.10
1996;DHT22;38556;47.068;15.408;2022-08-21T04:45:22;22.00;95.80
1996;DHT22;38556;47.068;15.408;2022-08-21T04:47:50;22.00;95.90
1996;DHT22;38556;47.068;15.408;2022-08-21T04:50:20;22.00;95.80
1996;DHT22;38556;47.068;15.408;2022-08-21T04:52:48;22.10;95.90
1996;DHT22;38556;47.068;15.408;2022-08-21T04:55:16;22.20;95.90
1996;DHT22;38556;47.068;15.408;2022-08-21T04:57:46;21.90;96.30
1996;DHT22;38556;47.068;15.408;2022-08-21T05:00:14;21.90;96.30
1996;DHT22;38556;47.068;15.408;2022-08-21T05:02:44;22.00;96.70
1996;DHT22;38556;47.068;15.408;2022-08-21T05:05:13;22.10;96.80
1996;DHT22;38556;47.068;15.408;2022-08-21T05:07:42;22.20;96.80
1996;DHT22;38556;47.068;15.408;2022-08-21T05:10:11;22.30;97.00
1996;DHT22;38556;47.068;15.408;2022-08-21T05:15:08;22.20;97.20
1996;DHT22;38556;47.068;15.408;2022-08-21T05:17:37;22.00;97.00
1996;DHT22;38556;47.068;15.408;2022-08-21T05:20:05;22.00;97.10
1996;DHT22;38556;47.068;15.408;2022-08-21T05:22:32;22.00;97.30
1996;DHT22;38556;47.068;15.408;2022-08-21T05:25:01;22.10;97.40
1996;DHT22;38556;47.068;15.408;2022-08-21T05:27:28;22.10;97.30
1996;DHT22;38556;47.068;15.408;2022-08-21T05:29:56;21.80;97.50
1996;DHT22;38556;47.068;15.408;2022-08-21T05:32:24;21.90;97.50
1996;DHT22;38556;47.068;15.408;2022-08-21T05:34:53;21.80;97.50
1996;DHT22;38556;47.068;15.408;2022-08-21T05:37:21;21.80;97.50
1996;DHT22;38556;47.068;15.408;2022-08-21T05:39:49;21.90;96.40
1996;DHT22;38556;47.068;15.408;2022-08-21T05:42:17;21.80;96.70
1996;DHT22;38556;47.068;15.408;2022-08-21T05:44:45;21.90;96.70
1996;DHT22;38556;47.068;15.408;2022-08-21T05:47:12;21.90;96.10
1996;DHT22;38556;47.068;15.408;2022-08-21T05:49:39;21.80;96.20
1996;DHT22;38556;47.068;15.408;2022-08-21T05:52:06;21.60;96.70
1996;DHT22;38556;47.068;15.408;2022-08-21T05:54:36;21.70;96.70
1996;DHT22;38556;47.068;15.408;2022-08-21T05:57:03;21.90;97.20
1996;DHT22;38556;47.068;15.408;2022-08-21T05:59:32;22.00;96.50
1996;DHT22;38556;47.068;15.408;2022-08-21T06:01:59;22.20;96.90
1996;DHT22;38556;47.068;15.408;2022-08-21T06:04:28;22.20;95.70
1996;DHT22;38556;47.068;15.408;2022-08-21T06:06:55;22.00;95.90
1996;DHT22;38556;47.068;15.408;2022-08-21T06:09:23;22.20;96.20
1996;DHT22;38556;47.068;15.408;2022-08-21T06:11:50;22.10;95.70
1996;DHT22;38556;47.068;15.408;2022-08-21T06:14:18;22.20;95.80
1996;DHT22;38556;47.068;15.408;2022-08-21T06:16:46;22.20;95.80
1996;DHT22;38556;47.068;15.408;2022-08-21T06:19:13;22.20;95.70
1996;DHT22;38556;47.068;15.408;2022-08-21T06:21:41;22.40;95.50
1996;DHT22;38556;47.068;15.408;2022-08-21T06:24:08;22.20;95.70
1996;DHT22;38556;47.068;15.408;2022-08-21T06:26:35;21.90;95.80
1996;DHT22;38556;47.068;15.408;2022-08-21T06:29:02;21.90;95.90
1996;DHT22;38556;47.068;15.408;2022-08-21T06:31:29;21.90;95.90
1996;DHT22;38556;47.068;15.408;2022-08-21T06:33:58;21.90;96.30
1996;DHT22;38556;47.068;15.408;2022-08-21T06:36:25;22.10;96.00
1996;DHT22;38556;47.068;15.408;2022-08-21T06:38:53;22.10;95.70
1996;DHT22;38556;47.068;15.408;2022-08-21T06:41:20;22.00;95.70
1996;DHT22;38556;47.068;15.408;2022-08-21T06:43:48;22.00;95.80
1996;DHT22;38556;47.068;15.408;2022-08-21T06:46:15;19.90;95.10
1996;DHT22;38556;47.068;15.408;2022-08-21T06:48:43;21.90;95.70
1996;DHT22;38556;47.068;15.408;2022-08-21T06:51:12;20.50;95.00
1996;DHT22;38556;47.068;15.408;2022-08-21T06:53:40;22.00;96.10
1996;DHT22;38556;47.068;15.408;2022-08-21T06:56:07;22.00;96.30
1996;DHT22;38556;47.068;15.408;2022-08-21T06:58:34;22.20;96.50
1996;DHT22;38556;47.068;15.408;2022-08-21T07:01:03;22.60;95.40
1996;DHT22;38556;47.068;15.408;2022-08-21T07:03:32;22.50;95.80
1996;DHT22;38556;47.068;15.408;2022-08-21T07:06:00;22.60;96.20
1996;DHT22;38556;47.068;15.408;2022-08-21T07:08:29;22.40;95.20
1996;DHT22;38556;47.068;15.408;2022-08-21T07:10:58;22.40;96.30
1996;DHT22;38556;47.068;15.408;2022-08-21T07:13:26;22.60;95.80
1996;DHT22;38556;47.068;15.408;2022-08-21T07:15:54;22.70;95.50
1996;DHT22;38556;47.068;15.408;2022-08-21T07:18:21;22.20;95.50
1996;DHT22;38556;47.068;15.408;2022-08-21T07:20:48;21.90;96.10
1996;DHT22;38556;47.068;15.408;2022-08-21T07:23:21;21.90;96.10
1996;DHT22;38556;47.068;15.408;2022-08-21T07:25:50;22.00;96.50
1996;DHT22;38556;47.068;15.408;2022-08-21T07:28:19;21.90;96.20
1996;DHT22;38556;47.068;15.408;2022-08-21T07:30:50;22.10;96.30
1996;DHT22;38556;47.068;15.408;2022-08-21T07:33:19;22.20;96.20
1996;DHT22;38556;47.068;15.408;2022-08-21T07:35:46;22.20;96.30
1996;DHT22;38556;47.068;15.408;2022-08-21T07:38:14;22.30;96.80
1996;DHT22;38556;47.068;15.408;2022-08-21T07:40:41;22.50;96.50
1996;DHT22;38556;47.068;15.408;2022-08-21T07:43:09;22.30;96.40
1996;DHT22;38556;47.068;15.408;2022-08-21T07:45:37;22.40;97.00
1996;DHT22;38556;47.068;15.408;2022-08-21T07:48:04;22.30;96.20
1996;DHT22;38556;47.068;15.408;2022-08-21T07:50:35;22.20;96.10
1996;DHT22;38556;47.068;15.408;2022-08-21T07:53:02;22.20;96.40
1996;DHT22;38556;47.068;15.408;2022-08-21T07:55:30;22.00;96.40
1996;DHT22;38556;47.068;15.408;2022-08-21T07:57:57;22.00;96.70
1996;DHT22;38556;47.068;15.408;2022-08-21T08:00:28;22.10;96.40
1996;DHT22;38556;47.068;15.408;2022-08-21T08:02:57;22.30;96.30
1996;DHT22;38556;47.068;15.408;2022-08-21T08:05:26;22.30;96.20
1996;DHT22;38556;47.068;15.408;2022-08-21T08:07:54;22.30;96.60
1996;DHT22;38556;47.068;15.408;2022-08-21T08:10:22;22.10;96.60
1996;DHT22;38556;47.068;15.408;2022-08-21T08:12:52;22.10;97.30
1996;DHT22;38556;47.068;15.408;2022-08-21T08:15:24;22.50;96.30
1996;DHT22;38556;47.068;15.408;2022-08-21T08:17:54;22.40;96.50
1996;DHT22;38556;47.068;15.408;2022-08-21T08:20:23;22.10;96.60
1996;DHT22;38556;47.068;15.408;2022-08-21T08:22:53;22.00;96.60
1996;DHT22;38556;47.068;15.408;2022-08-21T08:25:23;22.10;97.20
1996;DHT22;38556;47.068;15.408;2022-08-21T08:27:51;22.60;96.90
1996;DHT22;38556;47.068;15.408;2022-08-21T08:30:20;22.80;96.60
1996;DHT22;38556;47.068;15.408;2022-08-21T08:32:49;22.90;96.40
1996;DHT22;38556;47.068;15.408;2022-08-21T08:35:19;22.40;96.20
1996;DHT22;38556;47.068;15.408;2022-08-21T08:37:46;22.30;96.90
1996;DHT22;38556;47.068;15.408;2022-08-21T08:40:18;22.30;97.00
1996;DHT22;38556;47.068;15.408;2022-08-21T08:42:47;22.40;96.60
1996;DHT22;38556;47.068;15.408;2022-08-21T08:45:19;22.40;97.20
1996;DHT22;38556;47.068;15.408;2022-08-21T08:47:51;22.40;97.00
1996;DHT22;38556;47.068;15.408;2022-08-21T08:50:28;22.80;96.30
1996;DHT22;38556;47.068;15.408;2022-08-21T08:52:59;22.50;96.10
1996;DHT22;38556;47.068;15.408;2022-08-21T08:55:34;22.60;96.80
1996;DHT22;38556;47.068;15.408;2022-08-21T08:58:02;22.70;96.80
1996;DHT22;38556;47.068;15.408;2022-08-21T09:00:29;22.50;97.00
1996;DHT22;38556;47.068;15.408;2022-08-21T09:02:59;22.70;97.10
1996;DHT22;38556;47.068;15.408;2022-08-21T09:05:32;22.90;97.20
1996;DHT22;38556;47.068;15.408;2022-08-21T09:08:20;23.00;95.60
1996;DHT22;38556;47.068;15.408;2022-08-21T09:11:00;22.90;96.20
1996;DHT22;38556;47.068;15.408;2022-08-21T09:13:36;22.90;96.80
1996;DHT22;38556;47.068;15.408;2022-08-21T09:16:14;22.90;96.90
1996;DHT22;38556;47.068;15.408;2022-08-21T09:18:53;23.10;96.90
1996;DHT22;38556;47.068;15.408;2022-08-21T09:21:28;22.80;96.70
1996;DHT22;38556;47.068;15.408;2022-08-21T09:24:01;23.00;96.60
1996;DHT22;38556;47.068;15.408;2022-08-21T09:26:36;23.10;97.10
1996;DHT22;38556;47.068;15.408;2022-08-21T09:29:07;23.30;98.00
1996;DHT22;38556;47.068;15.408;2022-08-21T09:31:37;23.40;97.90
1996;DHT22;38556;47.068;15.408;2022-08-21T09:34:07;23.50;98.10
1996;DHT22;38556;47.068;15.408;2022-08-21T09:36:39;23.60;98.40
1996;DHT22;38556;47.068;15.408;2022-08-21T09:39:09;23.20;96.40
1996;DHT22;38556;47.068;15.408;2022-08-21T09:41:37;23.20;96.90
1996;DHT22;38556;47.068;15.408;2022-08-21T09:46:34;23.20;97.80
1996;DHT22;38556;47.068;15.408;2022-08-21T09:49:04;23.40;97.00
1996;DHT22;38556;47.068;15.408;2022-08-21T09:51:34;23.30;96.70
1996;DHT22;38556;47.068;15.408;2022-08-21T09:54:14;23.40;96.30
1996;DHT22;38556;47.068;15.408;2022-08-21T09:56:54;23.50;97.20
1996;DHT22;38556;47.068;15.408;2022-08-21T09:59:41;23.30;96.60
1996;DHT22;38556;47.068;15.408;2022-08-21T10:02:24;23.60;96.60
1996;DHT22;38556;47.068;15.408;2022-08-21T10:04:54;23.80;96.10
1996;DHT22;38556;47.068;15.408;2022-08-21T10:07:23;23.80;96.70
1996;DHT22;38556;47.068;15.408;2022-08-21T10:10:05;23.70;96.20
1996;DHT22;38556;47.068;15.408;2022-08-21T10:12:41;23.60;95.90
1996;DHT22;38556;47.068;15.408;2022-08-21T10:15:18;23.70;96.50
1996;DHT22;38556;47.068;15.408;2022-08-21T10:17:52;23.80;97.10
1996;DHT22;38556;47.068;15.408;2022-08-21T10:20:25;24.10;96.70
1996;DHT22;38556;47.068;15.408;2022-08-21T10:23:03;24.50;96.20
1996;DHT22;38556;47.068;15.408;2022-08-21T10:25:37;24.50;96.40
1996;DHT22;38556;47.068;15.408;2022-08-21T10:28:13;24.60;96.50
1996;DHT22;38556;47.068;15.408;2022-08-21T10:30:49;24.60;96.40
1996;DHT22;38556;47.068;15.408;2022-08-21T10:33:28;24.70;96.70
1996;DHT22;38556;47.068;15.408;2022-08-21T10:36:04;24.70;96.40
1996;DHT22;38556;47.068;15.408;2022-08-21T10:41:37;25.10;95.70
1996;DHT22;38556;47.068;15.408;2022-08-21T10:44:17;25.00;95.70
1996;DHT22;38556;47.068;15.408;2022-08-21T10:46:54;24.90;96.00
1996;DHT22;38556;47.068;15.408;2022-08-21T10:49:32;25.10;96.10
1996;DHT22;38556;47.068;15.408;2022-08-21T10:52:22;25.00;95.70
1996;DHT22;38556;47.068;15.408;2022-08-21T10:54:52;25.00;95.60
1996;DHT22;38556;47.068;15.408;2022-08-21T10:57:32;25.10;95.50
1996;DHT22;38556;47.068;15.408;2022-08-21T11:00:04;24.90;95.50
1996;DHT22;38556;47.068;15.408;2022-08-21T11:02:38;25.00;95.70
1996;DHT22;38556;47.068;15.408;2022-08-21T11:05:12;25.10;95.90
1996;DHT22;38556;47.068;15.408;2022-08-21T11:07:46;25.00;95.60
1996;DHT22;38556;47.068;15.408;2022-08-21T11:10:19;25.00;95.30
1996;DHT22;38556;47.068;15.408;2022-08-21T11:12:52;24.90;95.50
1996;DHT22;38556;47.068;15.408;2022-08-21T11:15:33;25.00;94.80
1996;DHT22;38556;47.068;15.408;2022-08-21T11:18:17;25.10;95.30
1996;DHT22;38556;47.068;15.408;2022-08-21T11:20:51;25.10;95.10
1996;DHT22;38556;47.068;15.408;2022-08-21T11:25:53;24.60;94.70
1996;DHT22;38556;47.068;15.408;2022-08-21T11:28:26;24.60;94.70
1996;DHT22;38556;47.068;15.408;2022-08-21T11:31:07;24.60;94.40
1996;DHT22;38556;47.068;15.408;2022-08-21T11:34:00;24.50;94.40
1996;DHT22;38556;47.068;15.408;2022-08-21T11:36:38;24.60;93.90
1996;DHT22;38556;47.068;15.408;2022-08-21T11:39:19;24.50;93.70
1996;DHT22;38556;47.068;15.408;2022-08-21T11:41:57;24.00;94.10
1996;DHT22;38556;47.068;15.408;2022-08-21T11:44:38;24.20;94.20
1996;DHT22;38556;47.068;15.408;2022-08-21T11:47:14;24.20;94.60
1996;DHT22;38556;47.068;15.408;2022-08-21T11:49:53;24.00;93.70
1996;DHT22;38556;47.068;15.408;2022-08-21T11:52:28;24.10;95.20
1996;DHT22;38556;47.068;15.408;2022-08-21T11:54:59;24.40;94.30
1996;DHT22;38556;47.068;15.408;2022-08-21T11:57:32;24.40;94.70
1996;DHT22;38556;47.068;15.408;2022-08-21T12:02:38;24.40;94.30
1996;DHT22;38556;47.068;15.408;2022-08-21T12:05:08;24.20;94.10
1996;DHT22;38556;47.068;15.408;2022-08-21T12:07:40;24.20;94.60
1996;DHT22;38556;47.068;15.408;2022-08-21T12:10:11;24.60;94.10
1996;DHT22;38556;47.068;15.408;2022-08-21T12:12:41;24.60;94.10
1996;DHT22;38556;47.068;15.408;2022-08-21T12:15:25;24.50;94.20
1996;DHT22;38556;47.068;15.408;2022-08-21T12:17:59;24.60;94.20
1996;DHT22;38556;47.068;15.408;2022-08-21T12:20:41;24.80;94.20
1996;DHT22;38556;47.068;15.408;2022-08-21T12:23:24;24.80;93.90
1996;DHT22;38556;47.068;15.408;2022-08-21T12:26:02;24.90;94.20
1996;DHT22;38556;47.068;15.408;2022-08-21T12:28:30;24.80;93.60
1996;DHT22;38556;47.068;15.408;2022-08-21T12:30:59;24.70;94.10
1996;DHT22;38556;47.068;15.408;2022-08-21T12:33:30;24.60;93.90
1996;DHT22;38556;47.068;15.408;2022-08-21T12:36:05;24.70;94.00
1996;DHT22;38556;47.068;15.408;2022-08-21T12:38:42;24.30;94.00
1996;DHT22;38556;47.068;15.408;2022-08-21T12:41:17;24.40;94.20
1996;DHT22;38556;47.068;15.408;2022-08-21T12:43:48;24.40;94.00
1996;DHT22;38556;47.068;15.408;2022-08-21T12:46:22;24.40;93.90
1996;DHT22;38556;47.068;15.408;2022-08-21T12:48:56;24.20;93.70
1996;DHT22;38556;47.068;15.408;2022-08-21T12:51:27;24.20;94.20
1996;DHT22;38556;47.068;15.408;2022-08-21T12:53:58;24.00;94.10
1996;DHT22;38556;47.068;15.408;2022-08-21T12:56:28;24.00;93.70
1996;DHT22;38556;47.068;15.408;2022-08-21T12:59:01;24.00;93.80
1996;DHT22;38556;47.068;15.408;2022-08-21T13:01:34;24.10;93.70
1996;DHT22;38556;47.068;15.408;2022-08-21T13:04:19;24.10;93.80
1996;DHT22;38556;47.068;15.408;2022-08-21T13:06:55;23.90;93.80
1996;DHT22;38556;47.068;15.408;2022-08-21T13:11:56;23.90;93.70
1996;DHT22;38556;47.068;15.408;2022-08-21T13:14:29;24.00;94.00
1996;DHT22;38556;47.068;15.408;2022-08-21T13:17:00;23.90;94.10
1996;DHT22;38556;47.068;15.408;2022-08-21T13:19:27;23.70;93.80
1996;DHT22;38556;47.068;15.408;2022-08-21T13:21:56;23.80;94.20
1996;DHT22;38556;47.068;15.408;2022-08-21T13:24:24;23.80;94.00
1996;DHT22;38556;47.068;15.408;2022-08-21T13:26:53;23.90;94.10
1996;DHT22;38556;47.068;15.408;2022-08-21T13:29:23;23.70;93.90
1996;DHT22;38556;47.068;15.408;2022-08-21T13:31:55;23.70;93.90
1996;DHT22;38556;47.068;15.408;2022-08-21T13:34:28;23.70;94.20
1996;DHT22;38556;47.068;15.408;2022-08-21T13:36:58;23.70;95.00
1996;DHT22;38556;47.068;15.408;2022-08-21T13:39:27;23.70;94.20
1996;DHT22;38556;47.068;15.408;2022-08-21T13:41:57;23.60;94.20
1996;DHT22;38556;47.068;15.408;2022-08-21T13:44:33;23.60;94.40
1996;DHT22;38556;47.068;15.408;2022-08-21T13:47:03;23.50;94.50
1996;DHT22;38556;47.068;15.408;2022-08-21T13:49:34;23.60;94.90
1996;DHT22;38556;47.068;15.408;2022-08-21T13:52:03;23.70;94.40
1996;DHT22;38556;47.068;15.408;2022-08-21T13:54:36;23.70;94.80
1996;DHT22;38556;47.068;15.408;2022-08-21T13:57:04;23.80;94.60
1996;DHT22;38556;47.068;15.408;2022-08-21T13:59:34;23.70;94.50
1996;DHT22;38556;47.068;15.408;2022-08-21T14:02:10;23.80;94.90
1996;DHT22;38556;47.068;15.408;2022-08-21T14:04:47;23.60;94.60
1996;DHT22;38556;47.068;15.408;2022-08-21T14:07:19;23.60;94.80
1996;DHT22;38556;47.068;15.408;2022-08-21T14:09:47;23.50;94.20
1996;DHT22;38556;47.068;15.408;2022-08-21T14:12:16;23.50;94.00
1996;DHT22;38556;47.068;15.408;2022-08-21T14:14:44;23.50;93.90
1996;DHT22;38556;47.068;15.408;2022-08-21T14:17:14;23.50;94.10
1996;DHT22;38556;47.068;15.408;2022-08-21T14:19:54;23.60;94.00
1996;DHT22;38556;47.068;15.408;2022-08-21T14:25:00;23.80;93.70
1996;DHT22;38556;47.068;15.408;2022-08-21T14:27:29;23.80;93.60
1996;DHT22;38556;47.068;15.408;2022-08-21T14:30:00;23.80;93.70
1996;DHT22;38556;47.068;15.408;2022-08-21T14:32:30;23.80;93.70
1996;DHT22;38556;47.068;15.408;2022-08-21T14:35:05;23.80;93.70
1996;DHT22;38556;47.068;15.408;2022-08-21T14:37:33;23.60;93.60
1996;DHT22;38556;47.068;15.408;2022-08-21T14:40:01;23.80;93.60
1996;DHT22;38556;47.068;15.408;2022-08-21T14:42:28;24.10;93.20
1996;DHT22;38556;47.068;15.408;2022-08-21T14:44:59;24.00;93.10
1996;DHT22;38556;47.068;15.408;2022-08-21T14:47:27;24.10;93.10
1996;DHT22;38556;47.068;15.408;2022-08-21T14:49:55;23.90;92.70
1996;DHT22;38556;47.068;15.408;2022-08-21T14:52:24;24.00;92.60
1996;DHT22;38556;47.068;15.408;2022-08-21T14:54:51;23.80;92.80
1996;DHT22;38556;47.068;15.408;2022-08-21T14:57:18;23.90;92.70
1996;DHT22;38556;47.068;15.408;2022-08-21T14:59:46;23.90;92.60
1996;DHT22;38556;47.068;15.408;2022-08-21T15:02:13;23.80;92.10
1996;DHT22;38556;47.068;15.408;2022-08-21T15:04:41;23.80;92.10
1996;DHT22;38556;47.068;15.408;2022-08-21T15:07:08;23.80;92.10
1996;DHT22;38556;47.068;15.408;2022-08-21T15:09:37;23.70;92.20
1996;DHT22;38556;47.068;15.408;2022-08-21T15:12:06;23.80;92.30
1996;DHT22;38556;47.068;15.408;2022-08-21T15:14:36;23.80;92.60
1996;DHT22;38556;47.068;15.408;2022-08-21T15:17:06;23.60;92.10
1996;DHT22;38556;47.068;15.408;2022-08-21T15:19:34;23.60;91.70
1996;DHT22;38556;47.068;15.408;2022-08-21T15:22:01;23.60;91.90
1996;DHT22;38556;47.068;15.408;2022-08-21T15:24:29;23.70;91.50
1996;DHT22;38556;47.068;15.408;2022-08-21T15:27:00;23.70;90.50
1996;DHT22;38556;47.068;15.408;2022-08-21T15:29:28;23.70;90.90
1996;DHT22;38556;47.068;15.408;2022-08-21T15:31:59;23.80;90.80
1996;DHT22;38556;47.068;15.408;2022-08-21T15:34:29;23.70;91.00
1996;DHT22;38556;47.068;15.408;2022-08-21T15:36:57;23.70;91.20
1996;DHT22;38556;47.068;15.408;2022-08-21T15:41:53;23.50;90.90
1996;DHT22;38556;47.068;15.408;2022-08-21T15:44:22;23.50;90.60
1996;DHT22;38556;47.068;15.408;2022-08-21T15:46:50;23.60;90.80
1996;DHT22;38556;47.068;15.408;2022-08-21T15:49:18;23.80;91.10
1996;DHT22;38556;47.068;15.408;2022-08-21T15:51:45;23.80;90.40
1996;DHT22;38556;47.068;15.408;2022-08-21T15:54:13;23.80;90.90
1996;DHT22;38556;47.068;15.408;2022-08-21T15:56:43;23.90;91.00
1996;DHT22;38556;47.068;15.408;2022-08-21T15:59:15;23.70;91.00
1996;DHT22;38556;47.068;15.408;2022-08-21T16:01:45;23.90;91.10
1996;DHT22;38556;47.068;15.408;2022-08-21T16:04:21;23.60;90.50
1996;DHT22;38556;47.068;15.408;2022-08-21T16:06:48;23.70;91.30
1996;DHT22;38556;47.068;15.408;2022-08-21T16:09:16;23.70;91.00
1996;DHT22;38556;47.068;15.408;2022-08-21T16:11:43;23.70;90.70
1996;DHT22;38556;47.068;15.408;2022-08-21T16:14:12;23.70;90.80